Time,TemperatureF,DewpointF,PressureIn,WindDirection,WindDirectionDegrees,WindSpeedMPH,WindSpeedGustMPH,Humidity,HourlyPrecipIn,Conditions,Clouds,dailyrainin,SolarRadiationWatts/m^2,SoftwareType,DateUTC
2013-01-31 00:02:00,44.4,41.0,29.81,WSW,252,0.0,1.0,87,0.02,,,0.18,0,weatherlink.com 1.10,2013-01-30 23:02:00,
2013-01-31 00:17:00,44.1,41.0,29.81,WSW,254,0.0,2.0,89,0.02,,,0.18,0,weatherlink.com 1.10,2013-01-30 23:17:00,
2013-01-31 00:32:00,44.0,41.0,29.80,WSW,244,3.0,5.0,89,0.02,,,0.18,0,weatherlink.com 1.10,2013-01-30 23:32:00,
2013-01-31 00:47:00,44.1,42.0,29.79,SW,229,0.0,2.0,91,0.01,,,0.00,0,weatherlink.com 1.10,2013-01-30 23:47:00,
2013-01-31 01:02:00,44.2,42.0,29.79,North,-999,0.0,4.0,91,0.00,,,0.00,0,weatherlink.com 1.10,2013-01-31 00:02:00,
2013-01-31 01:17:00,43.9,41.0,29.80,NNE,17,0.0,4.0,90,0.00,,,0.00,0,weatherlink.com 1.10,2013-01-31 00:17:00,
2013-01-31 01:32:00,45.6,44.0,29.84,North,360,2.0,11.0,94,0.02,,,0.02,0,weatherlink.com 1.10,2013-01-31 00:32:00,
2013-01-31 01:47:00,48.4,45.0,29.83,SSW,213,2.0,7.0,89,0.04,,,0.04,0,weatherlink.com 1.10,2013-01-31 00:47:00,
2013-01-31 02:02:00,48.2,45.0,29.86,South,173,3.0,10.0,88,0.05,,,0.05,0,weatherlink.com 1.10,2013-01-31 01:02:00,
2013-01-31 02:17:00,48.4,45.0,29.87,NNE,29,3.0,10.0,87,0.05,,,0.05,0,weatherlink.com 1.10,2013-01-31 01:17:00,
2013-01-31 02:47:00,46.8,43.0,29.86,North,360,1.0,8.0,86,0.01,,,0.05,0,weatherlink.com 1.10,2013-01-31 01:47:00,
2013-01-31 03:02:00,45.7,42.0,29.86,NNW,344,0.0,2.0,87,0.00,,,0.05,0,weatherlink.com 1.10,2013-01-31 02:02:00,
2013-01-31 03:32:00,47.0,41.0,29.86,North,360,4.0,10.0,80,0.01,,,0.06,0,weatherlink.com 1.10,2013-01-31 02:32:00,
2013-01-31 03:47:00,48.1,41.0,29.86,West,259,2.0,13.0,76,0.01,,,0.06,0,weatherlink.com 1.10,2013-01-31 02:47:00,
2013-01-31 04:02:00,47.4,40.0,29.86,North,360,1.0,12.0,76,0.01,,,0.06,0,weatherlink.com 1.10,2013-01-31 03:02:00,
2013-01-31 04:17:00,46.6,39.0,29.85,SW,218,2.0,20.0,75,0.00,,,0.06,0,weatherlink.com 1.10,2013-01-31 03:17:00,
2013-01-31 04:32:00,45.9,39.0,29.85,WSW,239,3.0,14.0,76,0.00,,,0.06,0,weatherlink.com 1.10,2013-01-31 03:32:00,
2013-01-31 04:47:00,45.0,39.0,29.88,North,355,2.0,8.0,78,0.00,,,0.06,0,weatherlink.com 1.10,2013-01-31 03:47:00,
2013-01-31 05:02:00,44.7,39.0,29.87,North,355,1.0,9.0,79,0.00,,,0.06,0,weatherlink.com 1.10,2013-01-31 04:02:00,
2013-01-31 05:17:00,44.4,39.0,29.88,NNW,344,6.0,9.0,80,0.00,,,0.06,0,weatherlink.com 1.10,2013-01-31 04:17:00,
2013-01-31 05:32:00,44.5,39.0,29.91,North,5,2.0,8.0,81,0.00,,,0.06,0,weatherlink.com 1.10,2013-01-31 04:32:00,
2013-01-31 05:47:00,44.3,39.0,29.92,NNE,18,2.0,3.0,81,0.00,,,0.06,0,weatherlink.com 1.10,2013-01-31 04:47:00,
2013-01-31 06:17:00,42.9,38.0,29.94,NNE,16,0.0,1.0,82,0.00,,,0.06,0,weatherlink.com 1.10,2013-01-31 05:17:00,
2013-01-31 06:32:00,42.6,38.0,29.94,SW,217,2.0,5.0,84,0.00,,,0.06,0,weatherlink.com 1.10,2013-01-31 05:32:00,
2013-01-31 06:47:00,43.0,38.0,29.95,North,360,2.0,7.0,82,0.00,,,0.06,0,weatherlink.com 1.10,2013-01-31 05:47:00,
2013-01-31 07:02:00,43.5,38.0,29.95,NNW,339,1.0,5.0,80,0.00,,,0.06,0,weatherlink.com 1.10,2013-01-31 06:02:00,
2013-01-31 07:17:00,43.7,37.0,29.95,NW,308,2.0,6.0,78,0.00,,,0.06,0,weatherlink.com 1.10,2013-01-31 06:17:00,
2013-01-31 07:32:00,43.8,37.0,29.96,ENE,63,2.0,7.0,76,0.00,,,0.06,7,weatherlink.com 1.10,2013-01-31 06:32:00,
2013-01-31 07:47:00,43.5,36.0,29.98,WSW,257,3.0,3.0,76,0.00,,,0.06,11,weatherlink.com 1.10,2013-01-31 06:47:00,
2013-01-31 08:18:00,45.6,38.0,29.99,North,355,2.0,7.0,76,0.00,,,0.06,128,weatherlink.com 1.10,2013-01-31 07:18:00,
2013-01-31 08:33:00,46.2,37.0,29.99,South,190,2.0,6.0,71,0.00,,,0.06,97,weatherlink.com 1.10,2013-01-31 07:33:00,
2013-01-31 08:48:00,46.9,37.0,30.00,SSE,150,1.0,5.0,69,0.00,,,0.06,137,weatherlink.com 1.10,2013-01-31 07:48:00,
2013-01-31 09:03:00,49.9,37.0,30.00,SSW,196,0.0,6.0,62,0.00,,,0.06,120,weatherlink.com 1.10,2013-01-31 08:03:00,
2013-01-31 09:18:00,48.3,37.0,29.99,South,176,3.0,8.0,65,0.00,,,0.06,58,weatherlink.com 1.10,2013-01-31 08:18:00,
2013-01-31 09:33:00,50.6,36.0,30.00,NW,323,5.0,8.0,58,0.00,,,0.06,188,weatherlink.com 1.10,2013-01-31 08:33:00,
2013-01-31 09:48:00,52.3,36.0,30.01,North,360,3.0,9.0,54,0.00,,,0.06,346,weatherlink.com 1.10,2013-01-31 08:48:00,
2013-01-31 10:03:00,52.5,37.0,30.01,WSW,242,2.0,11.0,55,0.00,,,0.06,373,weatherlink.com 1.10,2013-01-31 09:03:00,
2013-01-31 10:18:00,52.9,36.0,30.02,South,169,5.0,10.0,53,0.00,,,0.06,399,weatherlink.com 1.10,2013-01-31 09:18:00,
2013-01-31 10:33:00,53.5,36.0,30.02,SW,223,1.0,11.0,52,0.00,,,0.06,417,weatherlink.com 1.10,2013-01-31 09:33:00,
2013-01-31 10:48:00,53.7,36.0,30.02,South,170,3.0,15.0,51,0.00,,,0.06,432,weatherlink.com 1.10,2013-01-31 09:48:00,
2013-01-31 11:03:00,54.3,35.0,30.03,ENE,76,3.0,7.0,49,0.00,,,0.06,441,weatherlink.com 1.10,2013-01-31 10:03:00,
2013-01-31 11:18:00,53.4,35.0,30.03,SW,220,3.0,11.0,50,0.00,,,0.06,450,weatherlink.com 1.10,2013-01-31 10:18:00,
2013-01-31 11:33:00,54.1,35.0,30.02,East,84,3.0,9.0,48,0.00,,,0.06,459,weatherlink.com 1.10,2013-01-31 10:33:00,
2013-01-31 11:48:00,53.8,35.0,30.02,North,360,2.0,12.0,49,0.00,,,0.06,459,weatherlink.com 1.10,2013-01-31 10:48:00,
2013-01-31 12:33:00,53.7,33.0,30.00,South,178,5.0,12.0,46,0.00,,,0.06,446,weatherlink.com 1.10,2013-01-31 11:33:00,
2013-01-31 12:48:00,54.0,34.0,30.00,WSW,250,11.0,18.0,47,0.00,,,0.06,422,weatherlink.com 1.10,2013-01-31 11:48:00,
2013-01-31 13:03:00,53.7,33.0,29.99,SE,134,2.0,13.0,46,0.00,,,0.06,420,weatherlink.com 1.10,2013-01-31 12:03:00,
2013-01-31 13:18:00,53.1,33.0,29.99,NNW,333,3.0,10.0,47,0.00,,,0.06,399,weatherlink.com 1.10,2013-01-31 12:18:00,
2013-01-31 13:33:00,53.8,33.0,30.00,SSW,202,3.0,11.0,46,0.00,,,0.06,374,weatherlink.com 1.10,2013-01-31 12:33:00,
2013-01-31 13:48:00,53.3,33.0,29.99,North,360,9.0,12.0,47,0.00,,,0.06,352,weatherlink.com 1.10,2013-01-31 12:48:00,
2013-01-31 14:03:00,52.8,33.0,29.99,SSW,205,4.0,10.0,47,0.00,,,0.06,322,weatherlink.com 1.10,2013-01-31 13:03:00,
2013-01-31 14:18:00,53.1,33.0,29.98,North,360,0.0,6.0,46,0.00,,,0.06,290,weatherlink.com 1.10,2013-01-31 13:18:00,
2013-01-31 14:33:00,52.3,33.0,29.99,SW,222,2.0,7.0,49,0.00,,,0.06,178,weatherlink.com 1.10,2013-01-31 13:33:00,
2013-01-31 14:48:00,51.4,34.0,29.98,North,360,8.0,9.0,51,0.00,,,0.06,109,weatherlink.com 1.10,2013-01-31 13:48:00,
2013-01-31 15:03:00,50.4,34.0,29.97,NNW,342,0.0,10.0,53,0.00,,,0.06,93,weatherlink.com 1.10,2013-01-31 14:03:00,
2013-01-31 15:33:00,49.4,34.0,29.95,NNE,12,1.0,7.0,56,0.00,,,0.06,63,weatherlink.com 1.10,2013-01-31 14:33:00,
2013-01-31 15:48:00,49.2,34.0,29.95,North,360,3.0,9.0,57,0.00,,,0.06,40,weatherlink.com 1.10,2013-01-31 14:48:00,
2013-01-31 16:03:00,48.6,35.0,29.94,North,360,5.0,8.0,59,0.00,,,0.06,26,weatherlink.com 1.10,2013-01-31 15:03:00,
2013-01-31 16:18:00,48.2,34.0,29.93,North,360,2.0,8.0,58,0.00,,,0.06,25,weatherlink.com 1.10,2013-01-31 15:18:00,
2013-01-31 17:03:00,47.1,33.0,29.93,NW,311,0.0,6.0,58,0.00,,,0.06,0,weatherlink.com 1.10,2013-01-31 16:03:00,
2013-01-31 17:18:00,46.7,32.0,29.93,SW,235,0.0,3.0,58,0.00,,,0.06,0,weatherlink.com 1.10,2013-01-31 16:18:00,
2013-01-31 17:33:00,46.4,32.0,29.93,NW,307,1.0,4.0,58,0.00,,,0.06,0,weatherlink.com 1.10,2013-01-31 16:33:00,
2013-01-31 17:49:00,45.8,31.0,29.93,SW,221,1.0,6.0,57,0.00,,,0.06,0,weatherlink.com 1.10,2013-01-31 16:49:00,
2013-01-31 18:03:00,45.6,31.0,29.93,SW,233,2.0,7.0,58,0.00,,,0.06,0,weatherlink.com 1.10,2013-01-31 17:03:00,
2013-01-31 18:18:00,44.7,32.0,29.93,SW,227,4.0,6.0,62,0.00,,,0.06,0,weatherlink.com 1.10,2013-01-31 17:18:00,
2013-01-31 18:34:00,44.0,32.0,29.92,WSW,237,5.0,8.0,64,0.00,,,0.06,0,weatherlink.com 1.10,2013-01-31 17:34:00,
2013-01-31 19:04:00,43.4,32.0,29.90,SW,236,1.0,3.0,64,0.00,,,0.06,0,weatherlink.com 1.10,2013-01-31 18:04:00,
2013-01-31 19:19:00,43.1,32.0,29.89,SW,234,2.0,5.0,65,0.00,,,0.06,0,weatherlink.com 1.10,2013-01-31 18:19:00,
2013-01-31 19:34:00,43.1,32.0,29.89,SW,225,0.0,4.0,66,0.00,,,0.06,0,weatherlink.com 1.10,2013-01-31 18:34:00,
2013-01-31 19:49:00,43.0,33.0,29.90,WSW,237,2.0,2.0,67,0.00,,,0.06,0,weatherlink.com 1.10,2013-01-31 18:49:00,
2013-01-31 20:04:00,43.3,32.0,29.90,West,259,1.0,6.0,65,0.00,,,0.06,0,weatherlink.com 1.10,2013-01-31 19:04:00,
2013-01-31 20:34:00,45.7,31.0,29.89,SW,219,2.0,7.0,58,0.00,,,0.06,0,weatherlink.com 1.10,2013-01-31 19:34:00,
2013-01-31 20:49:00,45.8,32.0,29.88,WSW,237,1.0,10.0,58,0.00,,,0.06,0,weatherlink.com 1.10,2013-01-31 19:49:00,
2013-01-31 21:19:00,44.4,32.0,29.88,SW,236,0.0,2.0,61,0.00,,,0.06,0,weatherlink.com 1.10,2013-01-31 20:19:00,
2013-01-31 21:34:00,44.0,32.0,29.87,West,272,0.0,4.0,62,0.00,,,0.06,0,weatherlink.com 1.10,2013-01-31 20:34:00,
2013-01-31 21:49:00,43.8,31.0,29.88,North,360,0.0,3.0,60,0.00,,,0.06,0,weatherlink.com 1.10,2013-01-31 20:49:00,
2013-01-31 22:04:00,46.2,27.0,29.89,SE,136,3.0,13.0,48,0.00,,,0.06,0,weatherlink.com 1.10,2013-01-31 21:04:00,
2013-01-31 22:19:00,48.8,28.0,29.87,SSW,213,2.0,11.0,45,0.00,,,0.06,0,weatherlink.com 1.10,2013-01-31 21:19:00,
2013-01-31 22:34:00,48.8,29.0,29.87,WNW,291,0.0,5.0,47,0.00,,,0.06,0,weatherlink.com 1.10,2013-01-31 21:34:00,
2013-01-31 22:49:00,48.8,30.0,29.86,North,360,2.0,7.0,48,0.00,,,0.06,0,weatherlink.com 1.10,2013-01-31 21:49:00,
2013-01-31 23:04:00,48.7,30.0,29.86,North,355,1.0,5.0,48,0.00,,,0.06,0,weatherlink.com 1.10,2013-01-31 22:04:00,
2013-01-31 23:19:00,48.7,30.0,29.86,NNE,16,0.0,4.0,48,0.00,,,0.06,0,weatherlink.com 1.10,2013-01-31 22:19:00,
2013-01-31 23:34:00,49.3,30.0,29.86,NW,326,0.0,6.0,48,0.00,,,0.06,0,weatherlink.com 1.10,2013-01-31 22:34:00,
2013-01-31 23:49:00,49.2,30.0,29.85,NNW,329,4.0,4.0,47,0.00,,,0.06,0,weatherlink.com 1.10,2013-01-31 22:49:00,